createdAt,value
2022-11-01T00:00:10.435Z,10.68
2022-11-01T00:02:39.921Z,10.79
2022-11-01T00:05:09.830Z,10.67
2022-11-01T00:07:37.900Z,10.64
2022-11-01T00:10:09.447Z,10.61
2022-11-01T00:12:38.992Z,10.79
2022-11-01T00:15:09.567Z,10.80
2022-11-01T00:17:39.118Z,10.74
2022-11-01T00:20:09.772Z,10.72
2022-11-01T00:22:38.407Z,10.64
2022-11-01T00:25:09.055Z,10.71
2022-11-01T00:27:37.820Z,10.77
2022-11-01T00:30:08.184Z,10.79
2022-11-01T00:32:37.681Z,10.80
2022-11-01T00:35:07.044Z,10.81
2022-11-01T00:37:36.502Z,10.82
2022-11-01T00:40:07.008Z,10.74
2022-11-01T00:42:36.478Z,10.73
2022-11-01T00:45:05.791Z,10.66
2022-11-01T00:47:35.512Z,10.74
2022-11-01T00:50:04.677Z,10.69
2022-11-01T00:52:34.356Z,10.85
2022-11-01T00:55:03.174Z,10.67
2022-11-01T00:57:33.019Z,10.77
2022-11-01T01:00:04.477Z,10.66
2022-11-01T01:02:34.040Z,10.82
2022-11-01T01:05:04.057Z,10.73
2022-11-01T01:07:33.525Z,10.44
2022-11-01T01:10:03.439Z,10.50
2022-11-01T01:12:33.163Z,10.58
2022-11-01T01:15:03.546Z,10.38
2022-11-01T01:17:33.940Z,10.58
2022-11-01T01:20:04.636Z,10.61
2022-11-01T01:22:32.586Z,10.68
2022-11-01T01:25:02.017Z,10.55
2022-11-01T01:27:30.661Z,10.53
2022-11-01T01:29:59.529Z,10.48
2022-11-01T01:32:28.614Z,10.62
2022-11-01T01:34:57.251Z,10.61
2022-11-01T01:37:26.218Z,10.47
2022-11-01T01:39:55.810Z,10.58
2022-11-01T01:42:42.925Z,10.72
2022-11-01T01:45:31.941Z,10.55
2022-11-01T01:48:26.796Z,10.48
2022-11-01T01:51:05.422Z,10.58
2022-11-01T01:53:53.950Z,10.47
2022-11-01T01:56:34.076Z,10.50
2022-11-01T01:59:07.974Z,10.27
2022-11-01T02:01:41.968Z,10.42
2022-11-01T02:04:24.716Z,10.45
2022-11-01T02:06:54.433Z,10.50
2022-11-01T02:09:24.944Z,10.32
2022-11-01T02:11:57.683Z,10.27
2022-11-01T02:14:27.231Z,10.28
2022-11-01T02:17:10.523Z,10.36
2022-11-01T02:20:19.090Z,10.38
2022-11-01T02:23:09.222Z,10.33
2022-11-01T02:26:11.118Z,10.21
2022-11-01T02:29:28.399Z,10.45
2022-11-01T02:32:47.278Z,10.48
2022-11-01T02:35:46.451Z,10.41
2022-11-01T02:38:47.640Z,10.39
2022-11-01T02:41:40.787Z,10.45
2022-11-01T02:44:19.304Z,10.23
2022-11-01T02:47:01.648Z,10.33
2022-11-01T02:49:46.493Z,10.42
2022-11-01T02:52:24.613Z,10.42
2022-11-01T02:55:05.472Z,10.30
2022-11-01T02:57:41.417Z,10.51
2022-11-01T03:00:36.861Z,10.33
2022-11-01T03:03:32.079Z,10.45
2022-11-01T03:06:08.978Z,10.43
2022-11-01T03:08:51.471Z,10.39
2022-11-01T03:11:28.902Z,10.22
2022-11-01T03:14:03.668Z,10.18
2022-11-01T03:16:47.783Z,10.37
2022-11-01T03:19:49.910Z,10.29
2022-11-01T03:22:58.266Z,10.28
2022-11-01T03:25:40.875Z,10.07
2022-11-01T03:28:21.079Z,10.16
2022-11-01T03:31:11.443Z,10.20
2022-11-01T03:33:54.100Z,10.24
2022-11-01T03:36:28.060Z,10.09
2022-11-01T03:39:13.927Z,10.17
2022-11-01T03:41:49.177Z,9.95
2022-11-01T03:44:17.671Z,10.14
2022-11-01T03:46:46.138Z,10.14
2022-11-01T03:49:20.704Z,10.07
2022-11-01T03:51:49.488Z,10.21
2022-11-01T03:54:17.193Z,10.14
2022-11-01T03:56:46.126Z,10.18
2022-11-01T03:59:14.113Z,10.29
2022-11-01T04:01:42.718Z,10.27
2022-11-01T04:04:11.397Z,10.24
2022-11-01T04:06:39.829Z,10.38
2022-11-01T04:09:08.974Z,10.33
2022-11-01T04:11:36.878Z,10.39
2022-11-01T04:14:24.956Z,10.36
2022-11-01T04:17:11.322Z,10.29
2022-11-01T04:19:57.670Z,10.20
2022-11-01T04:22:25.339Z,10.20
2022-11-01T04:24:53.030Z,10.01
2022-11-01T04:27:20.711Z,9.94
2022-11-01T04:29:49.311Z,10.07
2022-11-01T04:32:17.891Z,10.03
2022-11-01T04:34:46.529Z,10.09
2022-11-01T04:37:15.047Z,10.08
2022-11-01T04:39:43.662Z,9.98
2022-11-01T04:42:11.337Z,10.06
2022-11-01T04:44:39.043Z,10.00
2022-11-01T04:47:07.460Z,9.83
2022-11-01T04:49:36.007Z,9.91
2022-11-01T04:52:03.940Z,9.93
2022-11-01T04:54:33.735Z,9.85
2022-11-01T04:57:02.423Z,10.04
2022-11-01T04:59:30.117Z,10.07
2022-11-01T05:01:57.857Z,10.17
2022-11-01T05:04:25.595Z,10.11
2022-11-01T05:06:53.278Z,10.17
2022-11-01T05:09:21.859Z,10.06
2022-11-01T05:11:50.387Z,10.14
2022-11-01T05:14:19.051Z,10.04
2022-11-01T05:16:47.504Z,10.15
2022-11-01T05:19:16.638Z,10.09
2022-11-01T05:21:44.382Z,10.14
2022-11-01T05:24:12.061Z,10.11
2022-11-01T05:26:41.361Z,10.17
2022-11-01T05:29:24.725Z,10.08
2022-11-01T05:31:58.060Z,10.23
2022-11-01T05:34:26.665Z,10.10
2022-11-01T05:36:55.056Z,10.04
2022-11-01T05:39:23.546Z,10.12
2022-11-01T05:41:52.603Z,10.11
2022-11-01T05:44:21.861Z,9.98
2022-11-01T05:46:49.611Z,10.08
2022-11-01T05:49:18.501Z,10.16
2022-11-01T05:51:47.207Z,10.15
2022-11-01T05:54:15.853Z,10.00
2022-11-01T05:56:43.818Z,10.06
2022-11-01T05:59:12.351Z,10.02
2022-11-01T06:01:40.391Z,9.91
2022-11-01T06:04:09.029Z,9.97
2022-11-01T06:06:37.651Z,10.01
2022-11-01T06:09:05.796Z,9.92
2022-11-01T06:11:37.867Z,10.02
2022-11-01T06:14:12.194Z,10.09
2022-11-01T06:16:40.902Z,10.13
2022-11-01T06:19:10.147Z,9.88
2022-11-01T06:21:37.993Z,9.93
2022-11-01T06:24:11.517Z,9.79
2022-11-01T06:26:40.275Z,10.08
2022-11-01T06:29:11.665Z,10.10
2022-11-01T06:31:39.511Z,9.89
2022-11-01T06:34:08.171Z,10.05
2022-11-01T06:36:35.921Z,9.82
2022-11-01T06:39:03.826Z,9.83
2022-11-01T06:41:32.466Z,9.75
2022-11-01T06:44:01.271Z,9.80
2022-11-01T06:46:28.950Z,9.78
2022-11-01T06:48:56.797Z,10.07
2022-11-01T06:51:25.536Z,10.04
2022-11-01T06:53:53.313Z,9.87
2022-11-01T06:56:21.237Z,10.07
2022-11-01T06:58:50.860Z,10.01
2022-11-01T07:01:22.387Z,10.01
2022-11-01T07:03:55.819Z,10.08
2022-11-01T07:06:28.794Z,10.04
2022-11-01T07:09:00.767Z,10.15
2022-11-01T07:11:31.697Z,10.16
2022-11-01T07:14:03.987Z,10.30
2022-11-01T07:16:33.996Z,10.38
2022-11-01T07:19:03.754Z,10.37
2022-11-01T07:21:32.580Z,10.40
2022-11-01T07:24:03.843Z,10.17
2022-11-01T07:26:33.265Z,10.08
2022-11-01T07:29:02.905Z,10.14
2022-11-01T07:31:33.427Z,10.16
2022-11-01T07:34:02.946Z,10.32
2022-11-01T07:36:31.833Z,10.18
2022-11-01T07:39:01.329Z,10.35
2022-11-01T07:41:29.895Z,10.32
2022-11-01T07:43:58.567Z,10.48
2022-11-01T07:46:27.362Z,10.36
2022-11-01T07:48:57.288Z,10.20
2022-11-01T07:51:26.038Z,10.44
2022-11-01T07:53:56.922Z,10.22
2022-11-01T07:56:26.562Z,10.18
2022-11-01T07:58:56.184Z,10.38
2022-11-01T08:01:25.128Z,10.52
2022-11-01T08:03:54.720Z,10.28
2022-11-01T08:06:23.370Z,10.35
2022-11-01T08:08:52.089Z,10.43
2022-11-01T08:11:20.743Z,10.40
2022-11-01T08:13:50.298Z,10.26
2022-11-01T08:16:19.144Z,10.41
2022-11-01T08:18:49.281Z,10.43
2022-11-01T08:21:19.019Z,10.42
2022-11-01T08:23:48.512Z,10.47
2022-11-01T08:26:17.266Z,10.53
2022-11-01T08:28:46.014Z,10.57
2022-11-01T08:31:15.771Z,10.35
2022-11-01T08:33:45.708Z,10.35
2022-11-01T08:36:15.483Z,10.47
2022-11-01T08:38:45.005Z,10.40
2022-11-01T08:41:13.713Z,10.42
2022-11-01T08:43:43.984Z,10.54
2022-11-01T08:46:13.557Z,10.65
2022-11-01T08:48:42.243Z,10.49
2022-11-01T08:51:11.041Z,10.55
2022-11-01T08:53:40.188Z,10.67
2022-11-01T08:56:09.144Z,10.75
2022-11-01T08:58:38.706Z,10.66
2022-11-01T09:01:08.344Z,10.80
2022-11-01T09:03:37.006Z,10.39
2022-11-01T09:06:06.746Z,10.70
2022-11-01T09:08:35.411Z,10.69
2022-11-01T09:11:06.457Z,10.93
2022-11-01T09:13:36.069Z,10.77
2022-11-01T09:16:09.123Z,10.72
2022-11-01T09:18:40.513Z,10.76
2022-11-01T09:21:10.676Z,10.80
2022-11-01T09:23:39.669Z,10.89
2022-11-01T09:26:11.487Z,10.79
2022-11-01T09:28:42.867Z,10.83
2022-11-01T09:31:21.876Z,10.88
2022-11-01T09:33:57.270Z,10.97
2022-11-01T09:36:28.088Z,11.11
2022-11-01T09:38:59.574Z,11.15
2022-11-01T09:44:40.717Z,11.18
2022-11-01T09:47:31.221Z,10.83
2022-11-01T09:50:18.376Z,10.87
2022-11-01T09:52:50.296Z,11.06
2022-11-01T09:56:05.546Z,10.73
2022-11-01T09:58:55.328Z,10.88
2022-11-01T10:02:15.649Z,10.92
2022-11-01T10:05:06.059Z,10.75
2022-11-01T10:08:20.895Z,10.87
2022-11-01T10:11:35.554Z,10.85
2022-11-01T10:14:35.956Z,10.93
2022-11-01T10:17:17.835Z,10.80
2022-11-01T10:19:50.864Z,11.03
2022-11-01T10:22:35.526Z,10.68
2022-11-01T10:25:23.791Z,10.70
2022-11-01T10:28:35.293Z,10.92
2022-11-01T10:31:17.771Z,10.90
2022-11-01T10:34:34.971Z,11.27
2022-11-01T10:38:04.047Z,11.14
2022-11-01T10:40:51.856Z,11.13
2022-11-01T10:43:25.845Z,11.40
2022-11-01T10:45:58.640Z,11.16
2022-11-01T10:48:44.353Z,11.17
2022-11-01T10:51:23.979Z,11.12
2022-11-01T10:54:04.073Z,10.92
2022-11-01T10:56:44.810Z,11.01
2022-11-01T10:59:29.591Z,11.17
2022-11-01T11:02:00.555Z,11.12
2022-11-01T11:04:30.260Z,11.42
2022-11-01T11:06:59.835Z,11.04
2022-11-01T11:09:41.203Z,11.38
2022-11-01T11:12:22.483Z,11.09
2022-11-01T11:15:04.455Z,11.16
2022-11-01T11:17:40.112Z,11.34
2022-11-01T11:20:11.533Z,11.46
2022-11-01T11:22:42.712Z,11.13
2022-11-01T11:25:20.263Z,11.44
2022-11-01T11:27:53.525Z,11.43
2022-11-01T11:30:36.704Z,11.47
2022-11-01T11:33:05.681Z,11.42
2022-11-01T11:35:37.414Z,11.17
2022-11-01T11:38:07.695Z,11.11
2022-11-01T11:40:45.964Z,11.43
2022-11-01T11:43:41.183Z,11.29
2022-11-01T11:46:22.924Z,11.59
2022-11-01T11:49:07.460Z,11.35
2022-11-01T11:51:38.467Z,11.48
2022-11-01T11:54:32.385Z,11.70
2022-11-01T11:57:25.178Z,11.74
2022-11-01T12:00:01.694Z,11.84
2022-11-01T12:02:36.992Z,11.80
2022-11-01T12:05:19.784Z,11.61
2022-11-01T12:07:54.048Z,11.65
2022-11-01T12:10:46.507Z,11.91
2022-11-01T12:13:38.150Z,12.05
2022-11-01T12:16:24.890Z,12.01
2022-11-01T12:19:02.291Z,11.88
2022-11-01T12:21:40.307Z,12.25
2022-11-01T12:24:37.912Z,12.18
2022-11-01T12:27:22.626Z,11.98
2022-11-01T12:30:15.873Z,12.00
2022-11-01T12:32:59.244Z,12.06
2022-11-01T12:35:42.863Z,11.83
2022-11-01T12:38:44.232Z,11.67
2022-11-01T12:41:42.109Z,11.76
2022-11-01T12:44:44.335Z,12.15
2022-11-01T12:47:42.561Z,12.04
2022-11-01T12:50:50.874Z,12.02
2022-11-01T12:54:02.523Z,11.64
2022-11-01T12:56:31.198Z,11.93
2022-11-01T12:59:01.287Z,11.82
2022-11-01T13:02:08.880Z,11.58
2022-11-01T13:05:16.394Z,11.73
2022-11-01T13:08:07.651Z,11.74
2022-11-01T13:10:45.011Z,11.82
2022-11-01T13:14:19.139Z,11.81
2022-11-01T13:17:37.385Z,12.03
2022-11-01T13:20:54.738Z,12.06
2022-11-01T13:24:05.803Z,12.17
2022-11-01T13:26:50.279Z,11.94
2022-11-01T13:30:01.020Z,12.13
2022-11-01T13:33:20.823Z,12.07
2022-11-01T13:36:31.201Z,11.87
2022-11-01T13:39:27.597Z,11.75
2022-11-01T13:42:16.411Z,11.91
2022-11-01T13:44:56.519Z,11.82
2022-11-01T13:47:38.087Z,11.76
2022-11-01T13:51:11.123Z,11.75
2022-11-01T13:54:03.955Z,11.70
2022-11-01T13:56:41.243Z,11.53
2022-11-01T13:59:45.105Z,11.58
2022-11-01T14:02:50.870Z,11.81
2022-11-01T14:05:40.149Z,11.90
2022-11-01T14:08:29.264Z,11.81
2022-11-01T14:10:58.224Z,11.60
2022-11-01T14:13:45.858Z,11.75
2022-11-01T14:16:25.045Z,11.89
2022-11-01T14:19:03.780Z,11.81
2022-11-01T14:21:53.717Z,11.60
2022-11-01T14:24:35.199Z,11.86
2022-11-01T14:27:36.364Z,11.69
2022-11-01T14:30:26.351Z,11.65
2022-11-01T14:33:04.397Z,11.69
2022-11-01T14:35:35.339Z,11.69
2022-11-01T14:38:16.358Z,11.56
2022-11-01T14:40:57.556Z,11.58
2022-11-01T14:43:36.371Z,11.63
2022-11-01T14:46:26.058Z,11.70
2022-11-01T14:49:57.803Z,11.52
2022-11-01T14:52:57.223Z,11.74
2022-11-01T14:55:36.915Z,11.83
2022-11-01T14:58:18.901Z,11.83
2022-11-01T15:00:55.966Z,11.76
2022-11-01T15:03:33.533Z,11.63
2022-11-01T15:06:02.550Z,11.74
2022-11-01T15:08:41.694Z,11.67
2022-11-01T15:11:11.521Z,11.71
2022-11-01T15:13:44.794Z,11.67
2022-11-01T15:16:23.537Z,11.72
2022-11-01T15:19:02.552Z,11.76
2022-11-01T15:21:35.287Z,11.63
2022-11-01T15:24:05.345Z,11.63
2022-11-01T15:26:34.576Z,11.67
2022-11-01T15:29:07.494Z,11.57
2022-11-01T15:31:36.601Z,11.57
2022-11-01T15:34:31.519Z,11.59
2022-11-01T15:37:22.121Z,11.56
2022-11-01T15:39:54.833Z,11.52
2022-11-01T15:42:34.211Z,11.54
2022-11-01T15:45:38.792Z,11.51
2022-11-01T15:48:21.561Z,11.56
2022-11-01T15:51:01.342Z,11.53
2022-11-01T15:53:36.140Z,11.60
2022-11-01T15:56:23.496Z,11.57
2022-11-01T15:59:01.994Z,11.65
2022-11-01T16:01:31.959Z,11.59
2022-11-01T16:04:08.601Z,11.52
2022-11-01T16:06:57.759Z,11.59
2022-11-01T16:09:55.194Z,11.59
2022-11-01T16:12:35.516Z,11.60
2022-11-01T16:15:31.421Z,11.43
2022-11-01T16:18:05.137Z,11.50
2022-11-01T16:20:47.239Z,11.43
2022-11-01T16:23:28.850Z,11.54
2022-11-01T16:28:56.106Z,11.68
2022-11-01T16:31:31.009Z,11.54
2022-11-01T16:34:00.910Z,11.43
2022-11-01T16:36:44.754Z,11.51
2022-11-01T16:39:31.936Z,11.47
2022-11-01T16:42:00.726Z,11.57
2022-11-01T16:44:30.743Z,11.34
2022-11-01T16:47:00.623Z,11.44
2022-11-01T16:49:31.963Z,11.43
2022-11-01T16:52:01.578Z,11.46
2022-11-01T16:54:30.879Z,11.38
2022-11-01T16:57:00.485Z,11.47
2022-11-01T16:59:39.275Z,11.40
2022-11-01T17:02:32.656Z,11.32
2022-11-01T17:05:23.620Z,11.48
2022-11-01T17:07:53.779Z,11.38
2022-11-01T17:10:26.132Z,11.39
2022-11-01T17:12:58.163Z,11.45
2022-11-01T17:15:40.326Z,11.39
2022-11-01T17:18:40.297Z,11.22
2022-11-01T17:21:37.007Z,11.15
2022-11-01T17:24:07.352Z,11.29
2022-11-01T17:26:36.372Z,11.35
2022-11-01T17:29:05.356Z,11.38
2022-11-01T17:31:34.876Z,11.45
2022-11-01T17:34:04.731Z,11.46
2022-11-01T17:36:36.621Z,11.33
2022-11-01T17:39:06.292Z,11.37
2022-11-01T17:41:36.063Z,11.43
2022-11-01T17:44:05.813Z,11.35
2022-11-01T17:46:35.461Z,11.31
2022-11-01T17:49:05.624Z,11.36
2022-11-01T17:51:35.380Z,11.52
2022-11-01T17:54:04.429Z,11.51
2022-11-01T17:56:34.065Z,11.39
2022-11-01T17:59:03.718Z,11.43
2022-11-01T18:01:33.361Z,11.43
2022-11-01T18:04:06.184Z,11.43
2022-11-01T18:06:35.936Z,11.42
2022-11-01T18:09:18.358Z,11.39
2022-11-01T18:12:15.029Z,11.32
2022-11-01T18:15:48.228Z,11.43
2022-11-01T18:19:21.856Z,11.30
2022-11-01T18:22:50.381Z,11.39
2022-11-01T18:25:34.770Z,11.41
2022-11-01T18:28:20.045Z,11.49
2022-11-01T18:30:56.835Z,11.46
2022-11-01T18:33:38.629Z,11.26
2022-11-01T18:36:45.827Z,11.34
2022-11-01T18:39:41.977Z,11.36
2022-11-01T18:42:12.082Z,11.43
2022-11-01T18:44:41.603Z,11.39
2022-11-01T18:47:25.195Z,11.46
2022-11-01T18:49:59.373Z,11.29
2022-11-01T18:52:37.367Z,11.40
2022-11-01T18:55:14.075Z,11.28
2022-11-01T18:57:42.816Z,11.47
2022-11-01T19:00:16.762Z,11.38
2022-11-01T19:02:46.271Z,11.35
2022-11-01T19:05:19.641Z,11.43
2022-11-01T19:08:10.792Z,11.44
2022-11-01T19:10:42.868Z,11.49
2022-11-01T19:13:26.408Z,11.42
2022-11-01T19:15:58.169Z,11.41
2022-11-01T19:18:28.144Z,11.49
2022-11-01T19:21:01.382Z,11.42
2022-11-01T19:23:58.912Z,11.51
2022-11-01T19:26:42.023Z,11.58
2022-11-01T19:29:21.306Z,11.52
2022-11-01T19:32:00.883Z,11.58
2022-11-01T19:34:38.002Z,11.58
2022-11-01T19:37:34.871Z,11.63
2022-11-01T19:40:31.832Z,11.57
2022-11-01T19:43:15.291Z,11.54
2022-11-01T19:45:55.047Z,11.68
2022-11-01T19:48:32.684Z,11.57
2022-11-01T19:51:01.512Z,11.61
2022-11-01T19:53:34.132Z,11.61
2022-11-01T19:56:10.494Z,11.63
2022-11-01T19:58:57.652Z,11.63
2022-11-01T20:01:41.481Z,11.54
2022-11-01T20:04:36.214Z,11.58
2022-11-01T20:07:17.920Z,11.55
2022-11-01T20:09:49.024Z,11.53
2022-11-01T20:12:22.052Z,11.52
2022-11-01T20:14:51.939Z,11.73
2022-11-01T20:17:21.627Z,11.53
2022-11-01T20:19:51.116Z,11.51
2022-11-01T20:22:20.706Z,11.55
2022-11-01T20:24:50.295Z,11.56
2022-11-01T20:27:19.781Z,11.62
2022-11-01T20:29:49.394Z,11.64
2022-11-01T20:32:19.264Z,11.50
2022-11-01T20:34:48.782Z,11.58
2022-11-01T20:37:34.091Z,11.43
2022-11-01T20:40:04.437Z,11.51
2022-11-01T20:42:33.362Z,11.59
2022-11-01T20:45:02.182Z,11.71
2022-11-01T20:47:31.969Z,11.62
2022-11-01T20:50:09.184Z,11.60
2022-11-01T20:52:43.561Z,11.67
2022-11-01T20:55:13.547Z,11.57
2022-11-01T20:57:43.703Z,11.55
2022-11-01T21:00:18.573Z,11.67
2022-11-01T21:02:49.035Z,11.63
2022-11-01T21:05:28.438Z,11.64
2022-11-01T21:08:26.633Z,11.66
2022-11-01T21:11:06.297Z,11.72
2022-11-01T21:13:37.983Z,11.70
2022-11-01T21:16:24.746Z,11.59
2022-11-01T21:19:00.368Z,11.52
2022-11-01T21:21:45.268Z,11.67
2022-11-01T21:24:41.006Z,11.63
2022-11-01T21:27:13.382Z,11.61
2022-11-01T21:29:48.402Z,11.67
2022-11-01T21:32:42.572Z,11.61
2022-11-01T21:35:41.218Z,11.62
2022-11-01T21:38:38.553Z,11.59
2022-11-01T21:41:22.614Z,11.53
2022-11-01T21:43:53.432Z,11.59
2022-11-01T21:46:25.778Z,11.60
2022-11-01T21:48:59.272Z,11.58
2022-11-01T21:51:29.677Z,11.61
2022-11-01T21:54:01.687Z,11.61
2022-11-01T21:56:33.153Z,11.67
2022-11-01T21:59:01.902Z,11.67
2022-11-01T22:01:31.653Z,11.63
2022-11-01T22:04:01.281Z,11.66
2022-11-01T22:06:30.017Z,11.63
2022-11-01T22:08:58.736Z,11.70
2022-11-01T22:11:32.353Z,11.68
2022-11-01T22:14:01.428Z,11.72
2022-11-01T22:16:30.659Z,11.70
2022-11-01T22:19:00.593Z,11.61
2022-11-01T22:21:30.790Z,11.61
2022-11-01T22:24:00.161Z,11.68
2022-11-01T22:26:29.184Z,11.84
2022-11-01T22:28:59.201Z,11.76
2022-11-01T22:31:28.023Z,11.69
2022-11-01T22:33:59.150Z,11.61
2022-11-01T22:36:31.928Z,11.68
2022-11-01T22:39:16.701Z,11.61
2022-11-01T22:41:45.604Z,11.71
2022-11-01T22:44:27.906Z,11.54
2022-11-01T22:47:02.616Z,11.53
2022-11-01T22:49:39.050Z,11.40
2022-11-01T22:52:32.092Z,11.50
2022-11-01T22:55:13.269Z,11.59
2022-11-01T22:58:34.939Z,11.67
2022-11-01T23:01:23.554Z,11.45
2022-11-01T23:03:59.234Z,11.58
2022-11-01T23:06:35.009Z,11.56
2022-11-01T23:09:20.422Z,11.60
2022-11-01T23:12:14.423Z,11.58
2022-11-01T23:14:46.296Z,11.60
2022-11-01T23:17:35.587Z,11.52
2022-11-01T23:20:05.649Z,11.51
2022-11-01T23:22:37.108Z,11.52
2022-11-01T23:25:07.331Z,11.50
2022-11-01T23:27:36.312Z,11.55
2022-11-01T23:30:07.082Z,11.47
2022-11-01T23:32:35.813Z,11.51
2022-11-01T23:35:19.808Z,11.51
2022-11-01T23:37:50.879Z,11.53
2022-11-01T23:40:22.077Z,11.48
2022-11-01T23:42:51.442Z,11.41
2022-11-01T23:45:34.052Z,11.52
2022-11-01T23:48:04.096Z,11.47
2022-11-01T23:50:38.001Z,11.47
2022-11-01T23:53:13.856Z,11.40
2022-11-01T23:55:52.364Z,11.45
